Time;durP1;ratioP1;P1;durP2;ratioP2;P2;SDS_P1;SDS_P2;PMS_P1;PMS_P2;Temp;Humidity;BMP_temperature;BMP_pressure;BME280_temperature;BME280_humidity;BME280_pressure;Samples;Min_cycle;Max_cycle;Signal;HPM_P1;HPM_P2
2021/08/19 00:00:10;;;;;;;;;;;;;;;23.49;71.20;100542.22;4958149;28;102884;-49
2021/08/19 00:02:37;;;;;;;;;;;;;;;23.48;71.41;100535.84;4958703;28;103925;-45
2021/08/19 00:05:03;;;;;;;;;;;;;;;23.48;71.43;100535.84;4950407;28;102625;-46
2021/08/19 00:07:29;;;;;;;;;;;;;;;23.48;71.15;100548.94;4949103;28;102481;-47
2021/08/19 00:10:17;;;;;;;;;;;;;;;23.49;71.50;100547.78;4953061;28;102840;-47
2021/08/19 00:12:43;;;;;;;;;;;;;;;23.48;71.26;100555.31;4946138;28;104939;-49
2021/08/19 00:15:10;;;;;;;;;;;;;;;23.49;71.44;100556.09;4949790;28;102476;-47
2021/08/19 00:17:36;;;;;;;;;;;;;;;23.48;71.35;100554.50;4937965;28;102743;-47
2021/08/19 00:20:06;;;;;;;;;;;;;;;23.47;71.12;100558.41;4962398;28;102373;-48
2021/08/19 00:22:32;;;;;;;;;;;;;;;23.47;71.46;100563.97;4952326;28;104043;-46
2021/08/19 00:25:01;;;;;;;;;;;;;;;23.48;71.04;100571.16;4951903;28;102577;-47
2021/08/19 00:27:33;;;;;;;;;;;;;;;23.46;71.19;100565.94;4950733;28;102582;-46
2021/08/19 00:29:59;;;;;;;;;;;;;;;23.47;71.33;100569.53;4948557;28;102498;-45
2021/08/19 00:32:46;;;;;;;;;;;;;;;23.47;71.42;100563.97;4949676;28;104791;-47
2021/08/19 00:35:12;;;;;;;;;;;;;;;23.47;71.41;100563.97;4950671;28;102961;-46
2021/08/19 00:37:40;;;;;;;;;;;;;;;23.47;71.35;100575.09;4950331;28;102833;-47
2021/08/19 00:40:07;;;;;;;;;;;;;;;23.46;71.12;100582.63;4953053;28;102874;-47
2021/08/19 00:42:34;;;;;;;;;;;;;;;23.46;71.40;100581.81;4950667;28;103872;-47
2021/08/19 00:45:02;;;;;;;;;;;;;;;23.45;71.44;100583.00;4949827;28;102570;-48
2021/08/19 00:47:29;;;;;;;;;;;;;;;23.45;71.19;100574.66;4951073;28;102135;-46
2021/08/19 00:49:59;;;;;;;;;;;;;;;23.44;71.41;100590.53;4953397;28;102754;-46
2021/08/19 00:52:31;;;;;;;;;;;;;;;23.44;71.29;100598.84;4951399;28;102764;-48
2021/08/19 00:55:11;;;;;;;;;;;;;;;23.45;71.32;100594.91;4944436;23;102907;-47
2021/08/19 00:57:39;;;;;;;;;;;;;;;23.44;71.21;100582.19;4910564;28;102454;-46
2021/08/19 01:00:08;;;;;;;;;;;;;;;23.45;71.35;100594.09;4914488;28;102936;-45
2021/08/19 01:02:34;;;;;;;;;;;;;;;23.44;71.13;100592.47;4922801;28;103699;-46
2021/08/19 01:05:04;;;;;;;;;;;;;;;23.43;71.28;100580.56;4918337;28;102396;-47
2021/08/19 01:07:31;;;;;;;;;;;;;;;23.44;71.06;100586.91;4916981;28;102412;-46
2021/08/19 01:10:00;;;;;;;;;;;;;;;23.43;71.35;100585.31;4912989;28;102452;-45
2021/08/19 01:12:27;;;;;;;;;;;;;;;23.43;71.23;100585.31;4915177;28;104045;-46
2021/08/19 01:14:56;;;;;;;;;;;;;;;23.42;71.31;100590.06;4912490;28;102037;-47
2021/08/19 01:17:22;;;;;;;;;;;;;;;23.42;71.34;100587.28;4913689;28;102493;-48
2021/08/19 01:19:49;;;;;;;;;;;;;;;23.41;71.27;100582.91;4911922;28;102399;-45
2021/08/19 01:22:16;;;;;;;;;;;;;;;23.42;71.21;100595.63;4911065;28;104005;-46
2021/08/19 01:24:43;;;;;;;;;;;;;;;23.42;71.28;100600.38;4910964;28;102067;-49
2021/08/19 01:27:14;;;;;;;;;;;;;;;23.42;71.38;100600.38;4908238;28;102612;-50
2021/08/19 01:29:43;;;;;;;;;;;;;;;23.41;71.30;100598.78;4910777;28;103581;-45
2021/08/19 01:32:11;;;;;;;;;;;;;;;23.41;71.05;100605.13;4910353;28;103899;-47
2021/08/19 01:34:40;;;;;;;;;;;;;;;23.42;71.12;100605.94;4912341;28;102485;-46
2021/08/19 01:37:06;;;;;;;;;;;;;;;23.41;71.21;100605.13;4912847;28;102095;-46
2021/08/19 01:39:34;;;;;;;;;;;;;;;23.41;71.06;100599.56;4912469;28;102668;-45
2021/08/19 01:42:00;;;;;;;;;;;;;;;23.40;70.98;100591.59;4909278;28;104087;-48
2021/08/19 01:44:28;;;;;;;;;;;;;;;23.40;70.97;100586.03;4912065;28;102712;-45
2021/08/19 01:46:58;;;;;;;;;;;;;;;23.40;71.21;100591.59;4913659;28;102545;-46
2021/08/19 01:49:25;;;;;;;;;;;;;;;23.40;71.31;100591.59;4913573;28;102414;-46
2021/08/19 01:51:52;;;;;;;;;;;;;;;23.40;70.97;100597.13;4911085;28;105180;-47
2021/08/19 01:54:21;;;;;;;;;;;;;;;23.40;71.22;100597.13;4911213;28;102546;-49
2021/08/19 01:56:47;;;;;;;;;;;;;;;23.40;71.01;100597.13;4910613;28;102748;-46
2021/08/19 01:59:19;;;;;;;;;;;;;;;23.39;70.93;100596.34;4912445;28;103018;-46
2021/08/19 02:01:48;;;;;;;;;;;;;;;23.40;71.26;100608.25;4909412;28;103628;-46
2021/08/19 02:04:14;;;;;;;;;;;;;;;23.39;71.20;100596.34;4925980;28;102220;-47
2021/08/19 02:06:42;;;;;;;;;;;;;;;23.39;71.00;100584.44;4908657;28;102870;-46
2021/08/19 02:09:08;;;;;;;;;;;;;;;23.38;71.10;100593.94;4914817;28;102631;-45
2021/08/19 02:11:38;;;;;;;;;;;;;;;23.39;71.16;100601.09;4908271;28;104029;-48
2021/08/19 02:14:04;;;;;;;;;;;;;;;23.38;70.80;100599.50;4912556;28;102740;-47
2021/08/19 02:16:31;;;;;;;;;;;;;;;23.39;70.95;100606.66;4911448;28;102447;-48
2021/08/19 02:19:00;;;;;;;;;;;;;;;23.39;71.13;100601.09;4912791;28;102592;-48
2021/08/19 02:21:26;;;;;;;;;;;;;;;23.38;71.00;100593.94;4911736;28;103554;-46
2021/08/19 02:23:53;;;;;;;;;;;;;;;23.38;71.00;100605.03;4910005;28;102441;-48
2021/08/19 02:26:19;;;;;;;;;;;;;;;23.38;71.25;100605.03;4909462;28;102275;-48
2021/08/19 02:28:46;;;;;;;;;;;;;;;23.38;71.09;100607.81;4909633;28;102311;-46
2021/08/19 02:31:16;;;;;;;;;;;;;;;23.37;71.29;100612.56;4898966;28;103710;-46
2021/08/19 02:33:42;;;;;;;;;;;;;;;23.38;71.09;100627.25;4907166;28;102161;-46
2021/08/19 02:36:10;;;;;;;;;;;;;;;23.38;71.25;100635.59;4910941;28;102477;-47
2021/08/19 02:38:36;;;;;;;;;;;;;;;23.38;71.08;100643.91;4911658;28;102656;-46
2021/08/19 02:41:02;;;;;;;;;;;;;;;23.38;71.16;100643.91;4907168;28;104690;-46
2021/08/19 02:43:29;;;;;;;;;;;;;;;23.38;71.24;100650.28;4909179;28;102257;-47
2021/08/19 02:45:55;;;;;;;;;;;;;;;23.37;71.20;100657.00;4909405;28;102578;-46
2021/08/19 02:48:22;;;;;;;;;;;;;;;23.37;71.05;100664.50;4913466;28;102301;-47
2021/08/19 02:50:48;;;;;;;;;;;;;;;23.38;70.92;100668.91;4910705;28;104212;-46
2021/08/19 02:53:16;;;;;;;;;;;;;;;23.37;70.99;100668.13;4911767;28;102327;-45
2021/08/19 02:55:43;;;;;;;;;;;;;;;23.37;71.10;100658.94;4908402;28;102114;-47
2021/08/19 02:58:09;;;;;;;;;;;;;;;23.37;71.01;100670.06;4915040;28;102593;-49
2021/08/19 03:00:35;;;;;;;;;;;;;;;23.38;70.95;100666.13;4908704;28;105664;-46
2021/08/19 03:03:02;;;;;;;;;;;;;;;23.38;71.14;100660.59;4910736;28;102146;-45
2021/08/19 03:05:28;;;;;;;;;;;;;;;23.38;71.13;100660.59;4908884;28;102213;-46
2021/08/19 03:07:55;;;;;;;;;;;;;;;23.37;71.32;100664.50;4910629;28;102523;-46
2021/08/19 03:10:23;;;;;;;;;;;;;;;23.37;71.02;100665.34;4896691;28;103904;-47
2021/08/19 03:12:50;;;;;;;;;;;;;;;23.38;71.31;100666.13;4911589;28;102523;-45
2021/08/19 03:15:17;;;;;;;;;;;;;;;23.38;71.05;100666.13;4908788;28;102623;-50
2021/08/19 03:17:43;;;;;;;;;;;;;;;23.37;71.22;100664.50;4908270;28;102248;-46
2021/08/19 03:20:11;;;;;;;;;;;;;;;23.37;70.98;100672.84;4908635;28;104057;-45
2021/08/19 03:22:38;;;;;;;;;;;;;;;23.37;71.16;100676.44;4909420;28;102386;-46
2021/08/19 03:25:08;;;;;;;;;;;;;;;23.37;71.10;100681.16;4909488;28;102159;-46
2021/08/19 03:27:36;;;;;;;;;;;;;;;23.38;71.23;100677.25;4909574;28;103437;-48
2021/08/19 03:30:02;;;;;;;;;;;;;;;23.37;71.27;100678.38;4908633;28;103874;-47
2021/08/19 03:32:29;;;;;;;;;;;;;;;23.37;70.95;100676.44;4907462;28;106391;-46
2021/08/19 03:34:55;;;;;;;;;;;;;;;23.36;71.26;100680.38;4908264;28;102574;-48
2021/08/19 03:37:24;;;;;;;;;;;;;;;23.37;71.09;100692.28;4909914;28;102614;-48
2021/08/19 03:39:50;;;;;;;;;;;;;;;23.36;71.20;100685.13;4907812;28;104209;-46
2021/08/19 03:42:17;;;;;;;;;;;;;;;23.36;71.04;100680.38;4910180;28;102678;-48
2021/08/19 03:44:45;;;;;;;;;;;;;;;23.36;71.13;100668.44;4909180;28;102475;-48
2021/08/19 03:47:11;;;;;;;;;;;;;;;23.37;71.12;100664.50;4912386;28;102679;-49
2021/08/19 03:49:39;;;;;;;;;;;;;;;23.37;71.17;100670.06;4912304;28;103919;-45
2021/08/19 03:52:06;;;;;;;;;;;;;;;23.36;71.30;100685.91;4913814;28;102429;-47
2021/08/19 03:54:33;;;;;;;;;;;;;;;23.37;71.27;100695.06;4914481;28;102204;-45
2021/08/19 03:56:59;;;;;;;;;;;;;;;23.35;71.17;100712.09;4914704;28;102165;-45
2021/08/19 03:59:26;;;;;;;;;;;;;;;23.36;71.06;100724.00;4909558;28;104185;-46
2021/08/19 04:01:53;;;;;;;;;;;;;;;23.36;71.06;100730.34;4914818;28;102337;-46
2021/08/19 04:04:20;;;;;;;;;;;;;;;23.36;71.19;100724.78;4910684;28;102215;-48
2021/08/19 04:06:46;;;;;;;;;;;;;;;23.36;71.28;100708.13;4913358;28;102293;-45
2021/08/19 04:09:12;;;;;;;;;;;;;;;23.36;71.08;100699.00;4912004;28;103902;-46
2021/08/19 04:11:51;;;;;;;;;;;;;;;23.35;71.15;100695.41;4912676;28;102439;-46
2021/08/19 04:14:18;;;;;;;;;;;;;;;23.36;71.13;100701.78;4913691;28;102788;-48
2021/08/19 04:16:44;;;;;;;;;;;;;;;23.37;70.97;100697.81;4912660;28;102305;-49
2021/08/19 04:19:15;;;;;;;;;;;;;;;23.36;71.29;100690.66;4916351;28;104608;-46
2021/08/19 04:21:42;;;;;;;;;;;;;;;23.35;71.17;100686.28;4913439;28;102658;-48
2021/08/19 04:24:11;;;;;;;;;;;;;;;23.34;71.36;100681.91;4911303;28;102203;-46
2021/08/19 04:26:37;;;;;;;;;;;;;;;23.35;71.32;100670.44;4912901;28;103393;-48
2021/08/19 04:29:03;;;;;;;;;;;;;;;23.35;71.32;100666.84;4914695;28;102692;-46
2021/08/19 04:31:30;;;;;;;;;;;;;;;23.34;71.21;100668.81;4913792;28;102450;-49
2021/08/19 04:33:57;;;;;;;;;;;;;;;23.35;71.36;100675.19;4911591;28;102266;-48
2021/08/19 04:36:25;;;;;;;;;;;;;;;23.34;71.26;100684.69;4920443;28;102897;-45
2021/08/19 04:38:52;;;;;;;;;;;;;;;23.34;71.03;100676.34;4905077;28;103986;-47
2021/08/19 04:41:18;;;;;;;;;;;;;;;23.34;71.36;100671.59;4909814;28;102484;-48
2021/08/19 04:43:45;;;;;;;;;;;;;;;23.33;71.19;100652.50;4913978;28;102952;-49
2021/08/19 04:46:11;;;;;;;;;;;;;;;23.33;71.03;100649.72;4913395;28;102202;-46
2021/08/19 04:48:37;;;;;;;;;;;;;;;23.33;71.11;100658.88;4911464;28;102703;-46
2021/08/19 04:51:04;;;;;;;;;;;;;;;23.32;71.11;100668.38;4912877;28;102412;-49
2021/08/19 04:53:36;;;;;;;;;;;;;;;23.33;71.17;100660.84;4914852;28;102776;-46
2021/08/19 04:56:02;;;;;;;;;;;;;;;23.32;71.15;100653.69;4911692;28;102829;-46
2021/08/19 04:58:28;;;;;;;;;;;;;;;23.32;70.97;100634.25;4909855;28;102853;-46
2021/08/19 05:00:55;;;;;;;;;;;;;;;23.32;71.04;100628.69;4908556;28;103752;-47
2021/08/19 05:03:21;;;;;;;;;;;;;;;23.31;71.12;100627.09;4912485;28;102409;-47
2021/08/19 05:05:47;;;;;;;;;;;;;;;23.31;71.02;100638.19;4912649;28;103735;-46
2021/08/19 05:08:13;;;;;;;;;;;;;;;23.31;71.08;100640.97;4912034;28;104505;-47
2021/08/19 05:10:41;;;;;;;;;;;;;;;23.31;71.00;100661.22;4912321;28;102767;-48
2021/08/19 05:13:08;;;;;;;;;;;;;;;23.30;70.88;100681.00;4909662;28;102467;-47
2021/08/19 05:15:35;;;;;;;;;;;;;;;23.33;71.21;100688.59;4912680;28;102544;-47
2021/08/19 05:18:05;;;;;;;;;;;;;;;23.31;70.79;100677.06;4899823;28;103868;-49
2021/08/19 05:20:51;;;;;;;;;;;;;;;23.30;71.12;100667.09;4909458;28;102448;-47
2021/08/19 05:23:17;;;;;;;;;;;;;;;23.32;71.25;100673.13;4912784;28;102391;-47
2021/08/19 05:25:49;;;;;;;;;;;;;;;23.31;70.99;100674.28;4911855;28;102490;-45
2021/08/19 05:28:16;;;;;;;;;;;;;;;23.31;71.07;100674.28;4908678;28;103891;-46
2021/08/19 05:30:42;;;;;;;;;;;;;;;23.31;71.19;100674.28;4908453;28;103000;-47
2021/08/19 05:33:08;;;;;;;;;;;;;;;23.30;71.30;100672.66;4907990;28;102697;-48
2021/08/19 05:35:34;;;;;;;;;;;;;;;23.30;70.98;100670.72;4912705;28;102212;-47
2021/08/19 05:38:01;;;;;;;;;;;;;;;23.30;70.93;100658.78;4909641;28;103642;-46
2021/08/19 05:40:28;;;;;;;;;;;;;;;23.29;71.09;100657.16;4909275;28;102382;-46
2021/08/19 05:42:56;;;;;;;;;;;;;;;23.30;70.87;100664.31;4914430;28;102975;-46
2021/08/19 05:45:22;;;;;;;;;;;;;;;23.30;71.20;100664.31;4908912;28;102773;-46
2021/08/19 05:47:49;;;;;;;;;;;;;;;23.30;71.19;100675.44;4892778;28;104138;-47
2021/08/19 05:50:15;;;;;;;;;;;;;;;23.30;70.99;100669.88;4908844;28;102427;-46
2021/08/19 05:52:44;;;;;;;;;;;;;;;23.29;71.24;100662.72;4898366;28;103729;-47
2021/08/19 05:55:10;;;;;;;;;;;;;;;23.30;70.92;100658.78;4889314;28;103186;-46
2021/08/19 05:57:37;;;;;;;;;;;;;;;23.30;71.22;100653.22;4899047;28;104111;-48
2021/08/19 06:00:05;;;;;;;;;;;;;;;23.29;71.10;100660.75;4911132;28;102831;-46
2021/08/19 06:02:32;;;;;;;;;;;;;;;23.29;71.07;100669.06;4902127;28;102693;-45
2021/08/19 06:04:58;;;;;;;;;;;;;;;23.29;70.99;100665.50;4889268;28;103823;-46
2021/08/19 06:07:25;;;;;;;;;;;;;;;23.30;71.01;100672.66;4904420;28;104075;-47
2021/08/19 06:09:52;;;;;;;;;;;;;;;23.30;71.01;100667.09;4906376;28;102135;-47
2021/08/19 06:12:18;;;;;;;;;;;;;;;23.29;71.16;100668.28;4900969;28;103560;-47
2021/08/19 06:14:45;;;;;;;;;;;;;;;23.28;71.25;100670.25;4906899;28;102446;-46
2021/08/19 06:17:12;;;;;;;;;;;;;;;23.29;70.84;100680.19;4900401;28;103824;-46
2021/08/19 06:19:40;;;;;;;;;;;;;;;23.27;71.23;100680.56;4899110;28;102553;-46
2021/08/19 06:22:06;;;;;;;;;;;;;;;23.29;71.01;100687.72;4898076;28;103607;-47
2021/08/19 06:24:33;;;;;;;;;;;;;;;23.29;71.14;100684.94;4909841;28;102223;-48
2021/08/19 06:26:59;;;;;;;;;;;;;;;23.27;70.93;100683.34;4903198;28;104070;-46
2021/08/19 06:29:26;;;;;;;;;;;;;;;23.29;71.12;100696.03;4900227;28;104175;-46
2021/08/19 06:31:52;;;;;;;;;;;;;;;23.28;71.24;100695.25;4905443;28;102636;-48
2021/08/19 06:34:20;;;;;;;;;;;;;;;23.28;71.03;100684.13;4911057;28;102778;-46
2021/08/19 06:36:49;;;;;;;;;;;;;;;23.29;71.09;100687.72;4908763;28;104176;-45
2021/08/19 06:39:15;;;;;;;;;;;;;;;23.28;71.18;100684.13;4908163;28;102562;-45
2021/08/19 06:41:42;;;;;;;;;;;;;;;23.29;70.95;100690.50;4908284;28;102582;-49
2021/08/19 06:44:09;;;;;;;;;;;;;;;23.29;70.91;100687.72;4911683;28;102330;-46
2021/08/19 06:46:35;;;;;;;;;;;;;;;23.29;70.90;100684.94;4908477;28;103684;-46
2021/08/19 06:49:02;;;;;;;;;;;;;;;23.29;70.98;100682.97;4907818;28;102020;-46
2021/08/19 06:51:30;;;;;;;;;;;;;;;23.27;71.20;100677.78;4908292;28;102637;-46
2021/08/19 06:53:58;;;;;;;;;;;;;;;23.28;70.94;100675.81;4910234;28;102851;-48
2021/08/19 06:56:24;;;;;;;;;;;;;;;23.29;71.33;100673.84;4901347;28;103915;-47
2021/08/19 06:58:50;;;;;;;;;;;;;;;23.29;71.07;100674.63;4910073;28;102019;-46
2021/08/19 07:01:17;;;;;;;;;;;;;;;23.27;71.15;100677.78;4907527;28;102102;-46
2021/08/19 07:03:43;;;;;;;;;;;;;;;23.27;71.31;100666.69;4913593;28;102955;-49
2021/08/19 07:06:10;;;;;;;;;;;;;;;23.27;70.89;100677.78;4892870;28;103918;-47
2021/08/19 07:08:38;;;;;;;;;;;;;;;23.27;71.01;100683.34;4912574;28;102123;-48
2021/08/19 07:11:05;;;;;;;;;;;;;;;23.27;71.05;100675.00;4910945;28;102499;-50
2021/08/19 07:13:31;;;;;;;;;;;;;;;23.27;71.32;100676.97;4914965;28;102190;-46
2021/08/19 07:15:58;;;;;;;;;;;;;;;23.27;71.04;100683.34;4909004;28;103918;-46
2021/08/19 07:18:25;;;;;;;;;;;;;;;23.26;71.16;100681.72;4912545;28;102479;-46
2021/08/19 07:20:55;;;;;;;;;;;;;;;23.26;70.96;100676.19;4910997;28;102195;-48
2021/08/19 07:23:21;;;;;;;;;;;;;;;23.26;70.94;100681.72;4914750;28;102242;-45
2021/08/19 07:25:49;;;;;;;;;;;;;;;23.26;71.06;100687.28;4913661;28;103886;-46
2021/08/19 07:28:16;;;;;;;;;;;;;;;23.27;71.06;100682.53;4905829;28;102172;-47
2021/08/19 07:30:43;;;;;;;;;;;;;;;23.26;71.22;100680.91;4910728;28;102494;-46
2021/08/19 07:33:09;;;;;;;;;;;;;;;23.26;71.24;100692.84;4915617;28;102721;-46
2021/08/19 07:35:36;;;;;;;;;;;;;;;23.27;71.20;100694.44;4912537;28;103924;-46
2021/08/19 07:38:02;;;;;;;;;;;;;;;23.27;71.22;100690.84;4911312;28;102170;-46
2021/08/19 07:40:29;;;;;;;;;;;;;;;23.27;71.26;100683.34;4899731;28;102537;-48
2021/08/19 07:42:58;;;;;;;;;;;;;;;23.28;71.00;100684.13;4915294;28;102190;-46
2021/08/19 07:45:26;;;;;;;;;;;;;;;23.27;71.20;100677.78;4914044;28;103922;-46
2021/08/19 07:47:52;;;;;;;;;;;;;;;23.27;71.30;100676.97;4917550;28;102582;-47
2021/08/19 07:50:19;;;;;;;;;;;;;;;23.29;71.12;100682.16;4912828;28;102355;-46
2021/08/19 07:52:45;;;;;;;;;;;;;;;23.27;71.29;100682.53;4916161;28;102312;-47
2021/08/19 07:55:12;;;;;;;;;;;;;;;23.27;71.12;100683.34;4915325;28;104206;-47
2021/08/19 07:57:39;;;;;;;;;;;;;;;23.27;71.12;100688.09;4913306;28;102538;-46
2021/08/19 08:00:07;;;;;;;;;;;;;;;23.27;71.19;100700.00;4913002;28;102265;-49
2021/08/19 08:02:34;;;;;;;;;;;;;;;23.27;71.23;100688.88;4915171;28;102796;-46
2021/08/19 08:05:00;;;;;;;;;;;;;;;23.28;71.10;100692.47;4912117;28;103735;-48
2021/08/19 08:07:26;;;;;;;;;;;;;;;23.27;71.35;100688.88;4913717;28;102463;-46
2021/08/19 08:09:53;;;;;;;;;;;;;;;23.27;71.05;100697.22;4911630;28;102981;-47
2021/08/19 08:12:19;;;;;;;;;;;;;;;23.29;71.31;100702.41;4904806;28;102310;-48
2021/08/19 08:14:46;;;;;;;;;;;;;;;23.30;71.25;100714.31;4906119;28;103948;-46
2021/08/19 08:17:15;;;;;;;;;;;;;;;23.29;71.33;100712.69;4913684;28;102201;-47
2021/08/19 08:19:41;;;;;;;;;;;;;;;23.31;70.97;100713.16;4911877;28;102512;-45
2021/08/19 08:22:08;;;;;;;;;;;;;;;23.29;71.22;100707.94;4911162;28;102210;-46
2021/08/19 08:24:36;;;;;;;;;;;;;;;23.30;71.35;100714.31;4913249;28;104145;-48
2021/08/19 08:27:03;;;;;;;;;;;;;;;23.29;71.16;100709.94;4905097;28;102650;-49
2021/08/19 08:29:31;;;;;;;;;;;;;;;23.30;71.38;100708.75;4911107;28;102124;-46
2021/08/19 08:32:01;;;;;;;;;;;;;;;23.29;71.00;100701.59;4913664;28;105661;-48
2021/08/19 08:34:29;;;;;;;;;;;;;;;23.29;71.16;100701.59;4920076;28;103952;-46
2021/08/19 08:36:55;;;;;;;;;;;;;;;23.30;71.28;100703.19;4914679;28;102468;-48
2021/08/19 08:39:22;;;;;;;;;;;;;;;23.29;71.25;100696.03;4911585;28;102882;-45
2021/08/19 08:41:50;;;;;;;;;;;;;;;23.29;71.23;100698.81;4914101;28;102221;-46
2021/08/19 08:44:17;;;;;;;;;;;;;;;23.30;71.20;100701.25;4908489;28;102841;-48
2021/08/19 08:46:44;;;;;;;;;;;;;;;23.30;70.86;100692.09;4909576;28;102640;-46
2021/08/19 08:49:12;;;;;;;;;;;;;;;23.31;70.99;100699.28;4904217;28;102307;-45
2021/08/19 08:51:46;;;;;;;;;;;;;;;23.31;71.20;100690.94;4908626;28;102828;-47
2021/08/19 08:54:13;;;;;;;;;;;;;;;23.31;71.34;100690.94;4909049;28;104088;-47
2021/08/19 08:56:40;;;;;;;;;;;;;;;23.31;71.37;100690.94;4911648;28;102400;-46
2021/08/19 08:59:06;;;;;;;;;;;;;;;23.32;71.24;100689.78;4910110;28;102418;-45
2021/08/19 09:01:33;;;;;;;;;;;;;;;23.32;71.08;100687.00;4910284;28;102541;-45
2021/08/19 09:03:59;;;;;;;;;;;;;;;23.33;71.05;100685.81;4915584;28;103868;-48
2021/08/19 09:06:36;;;;;;;;;;;;;;;23.32;70.94;100687.00;4903228;28;102528;-47
2021/08/19 09:09:15;;;;;;;;;;;;;;;23.32;71.18;100685.03;4907701;28;102582;-47
2021/08/19 09:11:53;;;;;;;;;;;;;;;23.31;71.11;100685.41;4905606;28;102856;-47
2021/08/19 09:14:21;;;;;;;;;;;;;;;23.32;71.04;100695.34;4908648;28;103961;-48
2021/08/19 09:16:47;;;;;;;;;;;;;;;23.32;71.10;100695.34;4908480;28;102431;-48
2021/08/19 09:19:15;;;;;;;;;;;;;;;23.33;71.05;100702.50;4911682;28;102270;-47
2021/08/19 09:21:48;;;;;;;;;;;;;;;23.33;71.05;100702.50;4912558;28;102568;-45
2021/08/19 09:24:17;;;;;;;;;;;;;;;23.33;70.92;100703.28;4912358;28;103879;-48
2021/08/19 09:26:43;;;;;;;;;;;;;;;23.34;71.22;100709.69;4906947;28;102602;-46
2021/08/19 09:29:15;;;;;;;;;;;;;;;23.35;71.20;100702.94;4906453;28;102419;-45
2021/08/19 09:31:41;;;;;;;;;;;;;;;23.34;71.24;100715.22;4910047;28;102648;-50
2021/08/19 09:34:08;;;;;;;;;;;;;;;23.34;71.26;100710.47;4909237;28;104025;-46
2021/08/19 09:36:34;;;;;;;;;;;;;;;23.34;71.04;100710.47;4909602;28;102334;-48
2021/08/19 09:39:03;;;;;;;;;;;;;;;23.35;70.85;100714.06;4913802;28;102259;-46
2021/08/19 09:41:31;;;;;;;;;;;;;;;23.35;71.04;100722.38;4913504;28;108563;-47
2021/08/19 09:43:59;;;;;;;;;;;;;;;23.36;71.06;100718.44;4920261;28;103872;-47
2021/08/19 09:46:35;;;;;;;;;;;;;;;23.36;70.89;100712.88;4906432;28;102574;-46
2021/08/19 09:49:19;;;;;;;;;;;;;;;23.36;71.20;100721.22;4915976;28;103636;-47
2021/08/19 09:51:58;;;;;;;;;;;;;;;23.36;71.17;100729.53;4905565;28;102822;-46
2021/08/19 09:54:26;;;;;;;;;;;;;;;23.36;71.06;100729.53;4908615;28;103956;-47
2021/08/19 09:56:54;;;;;;;;;;;;;;;23.36;71.10;100724.00;4908532;28;102648;-47
2021/08/19 09:59:22;;;;;;;;;;;;;;;23.36;70.99;100729.53;4906937;28;102906;-48
2021/08/19 10:01:48;;;;;;;;;;;;;;;23.36;71.12;100724.00;4909936;28;102997;-46
2021/08/19 10:04:15;;;;;;;;;;;;;;;23.36;70.94;100735.09;4910161;28;104109;-46
2021/08/19 10:06:42;;;;;;;;;;;;;;;23.37;70.95;100733.94;4907050;28;102922;-46
2021/08/19 10:09:09;;;;;;;;;;;;;;;23.36;71.09;100735.09;4909874;28;102202;-47
2021/08/19 10:11:36;;;;;;;;;;;;;;;23.35;70.81;100734.31;4909892;28;102436;-46
2021/08/19 10:14:04;;;;;;;;;;;;;;;23.35;70.87;100722.38;4909189;28;105681;-46
2021/08/19 10:16:31;;;;;;;;;;;;;;;23.36;70.88;100729.53;4908910;28;102652;-46
2021/08/19 10:19:05;;;;;;;;;;;;;;;23.36;70.82;100735.09;4910889;28;102167;-46
2021/08/19 10:21:35;;;;;;;;;;;;;;;23.36;70.81;100735.09;4911943;28;102207;-46
2021/08/19 10:24:04;;;;;;;;;;;;;;;23.36;71.09;100746.22;4907342;28;103900;-48
2021/08/19 10:26:31;;;;;;;;;;;;;;;23.36;70.91;100754.53;4910711;28;102487;-46
2021/08/19 10:28:58;;;;;;;;;;;;;;;23.35;70.87;100755.72;4904543;28;102102;-46
2021/08/19 10:31:43;;;;;;;;;;;;;;;23.36;71.14;100760.09;4908813;28;102932;-46
2021/08/19 10:34:10;;;;;;;;;;;;;;;23.36;71.11;100751.75;4910454;28;103644;-45
2021/08/19 10:36:49;;;;;;;;;;;;;;;23.36;70.77;100752.56;4910568;28;102239;-47
2021/08/19 10:39:34;;;;;;;;;;;;;;;23.36;70.73;100746.22;4908648;28;103931;-46
2021/08/19 10:42:00;;;;;;;;;;;;;;;23.36;70.85;100746.22;4905943;28;102460;-46
2021/08/19 10:44:33;;;;;;;;;;;;;;;23.36;70.96;100752.56;4904538;28;103047;-46
2021/08/19 10:47:01;;;;;;;;;;;;;;;23.37;70.98;100748.66;4907670;28;102470;-48
2021/08/19 10:49:35;;;;;;;;;;;;;;;23.36;70.93;100735.91;4905621;28;102267;-46
2021/08/19 10:52:20;;;;;;;;;;;;;;;23.36;71.01;100747.00;4905959;28;103202;-47
2021/08/19 10:54:47;;;;;;;;;;;;;;;23.37;71.11;100742.25;4901654;28;103848;-47
2021/08/19 10:57:33;;;;;;;;;;;;;;;23.36;71.00;100740.66;4912365;28;102730;-48
2021/08/19 11:00:02;;;;;;;;;;;;;;;23.36;71.03;100743.44;4908293;28;102377;-49
2021/08/19 11:02:46;;;;;;;;;;;;;;;23.36;70.99;100732.31;4909924;28;102804;-47
2021/08/19 11:05:34;;;;;;;;;;;;;;;23.36;70.78;100737.88;4906954;28;103839;-48
2021/08/19 11:08:02;;;;;;;;;;;;;;;23.36;70.96;100735.09;4904224;28;102339;-49
2021/08/19 11:10:30;;;;;;;;;;;;;;;23.36;71.07;100737.88;4907989;28;102347;-48
2021/08/19 11:13:01;;;;;;;;;;;;;;;23.35;70.80;100731.53;4913765;28;102673;-47
2021/08/19 11:15:27;;;;;;;;;;;;;;;23.35;70.94;100733.50;4903855;28;103902;-46
2021/08/19 11:17:54;;;;;;;;;;;;;;;23.35;70.93;100728.75;4918367;28;105006;-47
2021/08/19 11:20:24;;;;;;;;;;;;;;;23.35;70.92;100727.94;4909469;28;102485;-46
2021/08/19 11:23:00;;;;;;;;;;;;;;;23.35;70.83;100733.50;4914566;28;102473;-48
2021/08/19 11:25:27;;;;;;;;;;;;;;;23.34;70.68;100720.78;4894119;28;103803;-48
2021/08/19 11:27:57;;;;;;;;;;;;;;;23.35;70.76;100727.94;4911463;28;102459;-46
2021/08/19 11:30:30;;;;;;;;;;;;;;;23.36;70.64;100724.00;4910686;28;102855;-46
2021/08/19 11:33:08;;;;;;;;;;;;;;;23.36;70.84;100724.00;4910305;28;102442;-46
2021/08/19 11:35:39;;;;;;;;;;;;;;;23.35;70.90;100719.63;4905674;28;103705;-49
2021/08/19 11:38:10;;;;;;;;;;;;;;;23.36;71.01;100724.00;4906260;28;103754;-46
2021/08/19 11:40:36;;;;;;;;;;;;;;;23.36;70.89;100713.69;4906392;28;102521;-47
2021/08/19 11:43:24;;;;;;;;;;;;;;;23.36;70.83;100718.44;4909090;28;102303;-49
2021/08/19 11:46:03;;;;;;;;;;;;;;;23.37;71.03;100709.78;4908129;28;102717;-46
2021/08/19 11:48:32;;;;;;;;;;;;;;;23.37;71.07;100711.72;4908494;28;102146;-47
2021/08/19 11:51:01;;;;;;;;;;;;;;;23.36;70.92;100707.34;4906947;28;102614;-47
2021/08/19 11:53:27;;;;;;;;;;;;;;;23.36;70.89;100705.34;4904746;28;102555;-49
2021/08/19 11:55:54;;;;;;;;;;;;;;;23.37;70.93;100706.16;4905600;28;104182;-49
2021/08/19 11:58:22;;;;;;;;;;;;;;;23.36;70.81;100715.66;4910660;28;102383;-47
2021/08/19 12:00:56;;;;;;;;;;;;;;;23.35;70.99;100706.53;4908238;28;102162;-48
2021/08/19 12:03:24;;;;;;;;;;;;;;;23.36;70.85;100710.09;4909005;28;102691;-47
2021/08/19 12:05:58;;;;;;;;;;;;;;;23.35;70.90;100711.28;4914778;28;103754;-47
2021/08/19 12:08:27;;;;;;;;;;;;;;;23.35;70.88;100700.97;4908703;28;102078;-46
2021/08/19 12:10:55;;;;;;;;;;;;;;;23.34;70.94;100704.13;4906634;28;102579;-46
2021/08/19 12:13:26;;;;;;;;;;;;;;;23.35;70.87;100694.63;4910410;28;103117;-46
2021/08/19 12:15:55;;;;;;;;;;;;;;;23.36;70.89;100690.66;4911631;28;104138;-47
2021/08/19 12:18:42;;;;;;;;;;;;;;;23.35;70.90;100689.06;4911505;28;102082;-46
2021/08/19 12:21:18;;;;;;;;;;;;;;;23.34;70.84;100687.47;4912023;28;102562;-47
2021/08/19 12:23:47;;;;;;;;;;;;;;;23.35;70.62;100689.06;4912468;28;104732;-46
2021/08/19 12:26:16;;;;;;;;;;;;;;;23.34;70.96;100695.78;4907042;28;104028;-46
2021/08/19 12:28:54;;;;;;;;;;;;;;;23.34;70.96;100693.00;4912341;28;102407;-46
2021/08/19 12:31:20;;;;;;;;;;;;;;;23.33;70.95;100685.81;4912207;28;102385;-49
2021/08/19 12:33:47;;;;;;;;;;;;;;;23.34;70.96;100693.00;4909112;28;102789;-47